Time;durP1;ratioP1;P1;durP2;ratioP2;P2;SDS_P1;SDS_P2;PMS_P1;PMS_P2;Temp;Humidity;BMP_temperature;BMP_pressure;BME280_temperature;BME280_humidity;BME280_pressure;Samples;Min_cycle;Max_cycle;Signal;HPM_P1;HPM_P2
2023/06/03 00:02:49;;;;;;;;;10.00;8.00;;;;;15.50;57.58;99134.59;7698583;22;96214;-60
2023/06/03 00:05:52;;;;;;;;;8.00;7.60;;;;;15.41;57.64;99133.34;7645687;22;96757;-61
2023/06/03 00:08:56;;;;;;;;;9.75;9.50;;;;;15.34;58.01;99140.03;7671164;22;98221;-60
2023/06/03 00:11:59;;;;;;;;;10.00;9.25;;;;;15.29;57.91;99148.91;7698191;22;96175;-60
2023/06/03 00:15:03;;;;;;;;;9.00;8.25;;;;;15.27;57.78;99140.19;7670910;22;98144;-60
2023/06/03 00:18:08;;;;;;;;;9.60;9.00;;;;;15.27;57.71;99150.22;7696726;22;96176;-60
2023/06/03 00:21:12;;;;;;;;;9.00;9.00;;;;;15.23;57.28;99147.19;7698691;22;96356;-60
2023/06/03 00:24:16;;;;;;;;;11.00;10.00;;;;;15.20;57.36;99147.66;7671220;22;96349;-60
2023/06/03 00:27:19;;;;;;;;;9.00;8.50;;;;;15.17;57.58;99142.72;7698309;22;96503;-60
2023/06/03 00:30:23;;;;;;;;;9.60;9.00;;;;;15.13;57.67;99145.13;7698094;22;96275;-60
2023/06/03 00:33:27;;;;;;;;;12.00;10.00;;;;;15.09;58.03;99151.28;7644623;22;96550;-61
2023/06/03 00:36:31;;;;;;;;;11.00;10.00;;;;;15.05;58.30;99148.19;7690215;22;97366;-60
2023/06/03 00:39:34;;;;;;;;;9.00;8.33;;;;;15.00;58.44;99141.88;7697964;22;96253;-61
2023/06/03 00:42:37;;;;;;;;;10.20;8.80;;;;;15.00;58.86;99147.31;7696465;22;96206;-60
2023/06/03 00:45:41;;;;;;;;;11.25;9.25;;;;;14.94;59.48;99146.41;7671239;22;96679;-60
2023/06/03 00:48:46;;;;;;;;;10.00;10.00;;;;;14.89;59.31;99145.47;7697510;22;96792;-60
2023/06/03 00:51:50;;;;;;;;;10.33;10.00;;;;;14.87;59.53;99153.84;7698108;22;97592;-61
2023/06/03 00:54:53;;;;;;;;;9.00;9.00;;;;;14.82;60.27;99155.63;7697991;22;96810;-60
2023/06/03 00:57:57;;;;;;;;;9.00;8.00;;;;;14.80;60.21;99155.91;7699062;22;96187;-60
2023/06/03 01:01:01;;;;;;;;;8.67;8.00;;;;;14.78;59.59;99157.19;7697741;22;96763;-60
2023/06/03 01:04:07;;;;;;;;;6.00;6.00;;;;;14.73;59.74;99155.22;7697383;22;97388;-60
2023/06/03 01:07:21;;;;;;;;;10.40;10.40;;;;;14.70;59.75;99156.53;7698386;22;96215;-60
2023/06/03 01:10:41;;;;;;;;;10.40;10.00;;;;;14.69;59.54;99162.19;7723321;22;96585;-61
2023/06/03 01:13:50;;;;;;;;;12.00;10.50;;;;;14.65;59.23;99159.16;7671119;22;97141;-60
2023/06/03 01:16:59;;;;;;;;;11.00;11.00;;;;;14.61;59.35;99157.94;7698309;22;96172;-60
2023/06/03 01:20:07;;;;;;;;;8.00;7.00;;;;;14.56;59.01;99163.28;7697965;22;96255;-60
2023/06/03 01:23:23;;;;;;;;;9.00;9.00;;;;;14.50;59.44;99164.25;7723473;22;97002;-61
2023/06/03 01:26:28;;;;;;;;;11.00;11.00;;;;;14.46;59.43;99160.38;7699642;22;96282;-60
2023/06/03 01:29:31;;;;;;;;;10.50;10.00;;;;;14.41;58.95;99163.00;7698355;22;96225;-61
2023/06/03 01:32:37;;;;;;;;;8.40;8.40;;;;;14.37;59.31;99166.44;7697014;22;96564;-60
2023/06/03 01:35:41;;;;;;;;;11.40;10.00;;;;;14.36;59.35;99179.16;7698373;22;96684;-60
2023/06/03 01:38:46;;;;;;;;;8.80;8.80;;;;;14.35;59.54;99190.22;7646268;22;96576;-60
2023/06/03 01:41:52;;;;;;;;;15.40;14.40;;;;;14.31;60.70;99190.69;7699280;22;96198;-61
2023/06/03 01:44:58;;;;;;;;;12.40;12.40;;;;;14.35;61.21;99198.34;7671512;22;96415;-60
2023/06/03 01:48:03;;;;;;;;;12.00;11.40;;;;;14.41;63.97;99192.84;7672269;22;96845;-60
2023/06/03 01:51:07;;;;;;;;;14.00;12.80;;;;;14.50;63.81;99194.09;7698756;22;96373;-60
2023/06/03 01:54:12;;;;;;;;;12.00;12.00;;;;;14.57;63.79;99189.34;7671303;22;98528;-60
2023/06/03 01:57:18;;;;;;;;;13.00;12.00;;;;;14.60;63.49;99196.19;7672336;22;96642;-60
2023/06/03 02:00:21;;;;;;;;;12.00;12.00;;;;;14.60;63.21;99193.50;7673821;22;96228;-63
2023/06/03 02:03:25;;;;;;;;;13.00;12.00;;;;;14.57;63.34;99189.34;7675869;22;96180;-63
2023/06/03 02:06:28;;;;;;;;;13.00;13.00;;;;;14.49;63.94;99186.19;7702734;22;96646;-62
2023/06/03 02:09:33;;;;;;;;;14.00;13.60;;;;;14.42;63.40;99189.03;7675853;22;96281;-63
2023/06/03 02:12:36;;;;;;;;;12.00;11.00;;;;;14.40;62.84;99188.47;7676189;22;96837;-62
2023/06/03 02:15:48;;;;;;;;;12.40;12.40;;;;;14.29;63.72;99198.22;7702739;22;96225;-63
2023/06/03 02:18:53;;;;;;;;;16.00;16.00;;;;;14.24;63.98;99194.56;7676084;22;96860;-63
2023/06/03 02:21:57;;;;;;;;;13.75;13.00;;;;;14.15;63.61;99191.41;7650426;22;97047;-62
2023/06/03 02:25:02;;;;;;;;;14.40;14.00;;;;;14.12;63.84;99199.22;7702630;22;96838;-62
2023/06/03 02:28:07;;;;;;;;;14.00;13.40;;;;;13.98;64.89;99206.72;7676501;22;96402;-63
2023/06/03 02:31:12;;;;;;;;;11.60;11.60;;;;;13.99;63.78;99207.56;7676596;22;96253;-62
2023/06/03 02:34:15;;;;;;;;;13.00;12.00;;;;;14.01;63.60;99209.00;7675029;22;96746;-62
2023/06/03 02:37:20;;;;;;;;;12.25;12.25;;;;;13.98;62.94;99209.44;7675632;22;98476;-63
2023/06/03 02:40:25;;;;;;;;;15.00;14.00;;;;;13.96;63.01;99214.28;7676255;22;96761;-62
2023/06/03 02:43:28;;;;;;;;;18.00;18.00;;;;;13.96;63.07;99219.72;7677246;22;96265;-62
2023/06/03 02:46:32;;;;;;;;;14.00;13.00;;;;;13.98;62.52;99212.16;7678869;22;96279;-62
2023/06/03 02:49:36;;;;;;;;;10.80;10.00;;;;;14.01;62.07;99217.13;7652864;22;96647;-62
2023/06/03 02:52:42;;;;;;;;;10.75;10.00;;;;;14.00;62.02;99212.75;7677966;22;96146;-63
2023/06/03 02:55:47;;;;;;;;;13.00;12.00;;;;;13.97;62.01;99215.94;7676241;22;96310;-62
2023/06/03 02:58:50;;;;;;;;;10.00;10.00;;;;;13.95;61.95;99211.81;7652325;22;97613;-63
2023/06/03 03:01:54;;;;;;;;;13.00;13.00;;;;;13.92;61.74;99221.25;7676467;22;96280;-62
2023/06/03 03:04:57;;;;;;;;;10.60;10.60;;;;;13.94;61.97;99229.13;7676619;22;96410;-63
2023/06/03 03:08:00;;;;;;;;;11.00;10.00;;;;;13.92;61.96;99231.25;7704515;22;96178;-63
2023/06/03 03:11:09;;;;;;;;;14.00;13.75;;;;;13.93;62.07;99233.72;7652646;22;99436;-63
2023/06/03 03:14:12;;;;;;;;;12.00;12.00;;;;;13.96;62.03;99246.81;7677927;22;96171;-63
2023/06/03 03:17:15;;;;;;;;;15.00;15.00;;;;;13.98;61.67;99243.84;7678015;22;96380;-63
2023/06/03 03:20:19;;;;;;;;;13.00;13.00;;;;;14.02;62.12;99239.63;7677429;22;96827;-62
2023/06/03 03:23:23;;;;;;;;;13.00;12.00;;;;;13.92;62.23;99232.09;7678297;22;96449;-63
2023/06/03 03:26:29;;;;;;;;;13.20;13.00;;;;;14.11;62.01;99243.63;7676686;22;101238;-63
2023/06/03 03:29:33;;;;;;;;;16.60;15.00;;;;;14.12;62.54;99237.16;7677033;22;97030;-62
2023/06/03 03:32:41;;;;;;;;;17.50;17.00;;;;;14.28;63.73;99253.53;7703424;22;96242;-62
2023/06/03 03:35:48;;;;;;;;;13.00;12.00;;;;;14.40;63.94;99253.56;7685184;22;96197;-63
2023/06/03 03:39:00;;;;;;;;;15.00;15.00;;;;;14.52;63.51;99261.66;7704973;22;96279;-63
2023/06/03 03:42:09;;;;;;;;;14.00;14.00;;;;;14.63;63.83;99258.94;7702812;22;96704;-63
2023/06/03 03:45:18;;;;;;;;;15.60;14.00;;;;;14.65;63.45;99256.84;7702538;22;96618;-63
2023/06/03 03:48:22;;;;;;;;;15.00;14.00;;;;;14.78;63.40;99269.31;7705637;22;96176;-63
2023/06/03 03:51:28;;;;;;;;;18.00;16.60;;;;;14.65;63.56;99242.44;7703576;22;96141;-64
2023/06/03 03:54:34;;;;;;;;;16.60;16.00;;;;;14.88;63.39;99268.69;7703832;22;96316;-63
2023/06/03 03:57:41;;;;;;;;;16.60;14.60;;;;;14.95;63.36;99277.53;7702284;22;96414;-63
2023/06/03 04:00:45;;;;;;;;;14.00;13.00;;;;;14.94;63.05;99274.00;7676431;22;96704;-63
2023/06/03 04:03:51;;;;;;;;;10.25;10.25;;;;;14.99;62.44;99265.94;7702684;22;96707;-63
2023/06/03 04:06:56;;;;;;;;;12.00;11.00;;;;;15.07;62.26;99273.72;7704672;22;96255;-63
2023/06/03 04:09:59;;;;;;;;;14.60;13.60;;;;;15.14;62.01;99279.84;7701644;22;96227;-63
2023/06/03 04:13:06;;;;;;;;;17.00;16.00;;;;;15.02;62.31;99268.19;7701461;22;96162;-63
2023/06/03 04:16:11;;;;;;;;;14.00;14.00;;;;;15.15;62.08;99278.75;7702043;22;96347;-62
2023/06/03 04:19:19;;;;;;;;;13.00;13.00;;;;;15.18;61.60;99280.16;7673660;22;96580;-63
2023/06/03 04:22:24;;;;;;;;;11.00;10.00;;;;;15.26;60.82;99285.22;7701866;22;96400;-62
2023/06/03 04:25:31;;;;;;;;;12.25;12.25;;;;;15.20;60.77;99275.31;7703739;22;96199;-63
2023/06/03 04:28:38;;;;;;;;;14.00;13.00;;;;;15.40;60.24;99285.72;7700281;22;96525;-68
2023/06/03 04:31:42;;;;;;;;;14.00;12.00;;;;;15.38;59.83;99290.59;7696399;22;96269;-64
2023/06/03 04:34:55;;;;;;;;;15.00;13.00;;;;;15.36;60.25;99290.00;7697956;22;97034;-66
2023/06/03 04:37:59;;;;;;;;;12.20;12.00;;;;;15.43;59.97;99288.81;7670622;22;96884;-67
2023/06/03 04:41:03;;;;;;;;;13.00;13.00;;;;;15.56;60.00;99298.56;7697481;22;96616;-67
2023/06/03 04:44:11;;;;;;;;;14.80;14.20;;;;;15.51;59.27;99301.19;7645947;22;98268;-68
2023/06/03 04:47:17;;;;;;;;;15.60;14.00;;;;;15.62;58.97;99300.31;7646216;22;96587;-67
2023/06/03 04:50:21;;;;;;;;;14.80;13.80;;;;;15.74;58.68;99303.78;7672043;22;96711;-67
2023/06/03 04:53:26;;;;;;;;;16.60;16.00;;;;;15.79;58.15;99306.59;7646125;22;98618;-67
2023/06/03 04:56:31;;;;;;;;;14.00;13.40;;;;;15.92;58.29;99310.91;7672437;22;96172;-67
2023/06/03 04:59:38;;;;;;;;;14.75;14.75;;;;;15.87;58.05;99308.94;7672035;22;96293;-67
2023/06/03 05:02:44;;;;;;;;;16.25;15.00;;;;;15.98;58.28;99309.91;7671698;22;96268;-67
2023/06/03 05:05:50;;;;;;;;;12.60;12.00;;;;;16.11;57.54;99317.75;7672693;22;96424;-66
2023/06/03 05:08:56;;;;;;;;;14.20;13.20;;;;;16.11;57.44;99323.22;7672980;22;96262;-67
2023/06/03 05:12:00;;;;;;;;;16.00;15.60;;;;;16.35;58.10;99321.13;7672084;22;96404;-67
2023/06/03 05:15:08;;;;;;;;;13.40;13.00;;;;;16.45;56.48;99324.00;7671932;22;96324;-67
2023/06/03 05:18:11;;;;;;;;;14.00;13.00;;;;;16.46;55.98;99322.94;7697111;22;96813;-67
2023/06/03 05:21:19;;;;;;;;;16.00;13.20;;;;;16.54;55.75;99322.50;7698176;22;96249;-67
2023/06/03 05:24:23;;;;;;;;;14.00;13.40;;;;;16.73;55.59;99329.34;7671379;22;96287;-67
2023/06/03 05:27:26;;;;;;;;;11.20;11.00;;;;;16.79;55.43;99322.09;7671964;22;96607;-66
2023/06/03 05:30:31;;;;;;;;;13.00;11.00;;;;;16.81;54.69;99328.91;7646229;22;96610;-67
2023/06/03 05:33:36;;;;;;;;;13.00;12.00;;;;;16.94;55.24;99333.19;7669558;22;96541;-67
2023/06/03 05:36:45;;;;;;;;;14.00;13.00;;;;;16.99;54.48;99332.44;7693747;22;96774;-67
2023/06/03 05:39:49;;;;;;;;;11.00;11.00;;;;;17.24;54.50;99333.59;7670570;22;97136;-67
2023/06/03 05:42:55;;;;;;;;;14.80;13.80;;;;;17.33;52.95;99336.69;7697530;22;96224;-67
2023/06/03 05:46:02;;;;;;;;;16.00;14.00;;;;;17.17;53.13;99332.94;7697750;22;96345;-67
2023/06/03 05:49:06;;;;;;;;;13.00;12.00;;;;;17.53;53.66;99336.09;7697708;22;96409;-67
2023/06/03 05:52:10;;;;;;;;;14.75;14.00;;;;;17.24;52.16;99335.50;7697841;22;97969;-68
2023/06/03 05:55:13;;;;;;;;;17.00;16.60;;;;;17.12;52.57;99332.88;7697503;22;96156;-67
2023/06/03 05:58:17;;;;;;;;;15.00;13.00;;;;;16.99;52.86;99332.44;7697207;22;96489;-67
2023/06/03 06:01:22;;;;;;;;;11.60;11.20;;;;;17.01;52.41;99343.88;7698468;22;96303;-67
2023/06/03 06:04:26;;;;;;;;;14.00;13.00;;;;;16.99;53.31;99341.44;7697867;22;97028;-68
2023/06/03 06:07:29;;;;;;;;;13.00;13.00;;;;;17.28;54.01;99339.34;7696413;22;96776;-67
2023/06/03 06:10:33;;;;;;;;;14.50;14.00;;;;;17.29;51.18;99336.38;7698786;22;96141;-67
2023/06/03 06:13:36;;;;;;;;;13.33;13.00;;;;;17.48;51.29;99339.59;7696329;22;96320;-67
2023/06/03 06:16:41;;;;;;;;;18.40;16.20;;;;;17.82;50.45;99342.16;7697634;22;96172;-67
2023/06/03 06:19:46;;;;;;;;;11.25;11.25;;;;;18.10;49.93;99342.69;7697113;22;96331;-67
2023/06/03 06:22:49;;;;;;;;;12.00;11.75;;;;;18.26;49.75;99323.72;7697481;22;96261;-66
2023/06/03 06:25:54;;;;;;;;;13.60;13.00;;;;;18.60;47.78;99350.50;7697035;22;96538;-67
2023/06/03 06:29:01;;;;;;;;;11.00;10.75;;;;;19.04;47.67;99356.50;7671834;22;97711;-67
2023/06/03 06:32:09;;;;;;;;;12.60;11.60;;;;;19.45;46.99;99356.69;7671514;22;98470;-67
2023/06/03 06:35:15;;;;;;;;;10.00;8.75;;;;;19.70;45.46;99356.78;7697007;22;96216;-67
2023/06/03 06:38:18;;;;;;;;;11.00;10.40;;;;;19.67;43.63;99360.06;7671020;22;96568;-67
2023/06/03 06:41:22;;;;;;;;;11.00;10.75;;;;;19.73;44.70;99359.00;7698742;22;96413;-67
2023/06/03 06:44:25;;;;;;;;;10.20;9.00;;;;;19.91;43.98;99354.91;7696173;22;97570;-67
2023/06/03 06:47:36;;;;;;;;;8.00;7.00;;;;;20.14;42.92;99364.53;7696432;22;96564;-66
2023/06/03 06:50:47;;;;;;;;;10.50;10.00;;;;;20.24;43.00;99351.66;7695613;22;96505;-67
2023/06/03 06:53:53;;;;;;;;;10.00;9.40;;;;;20.20;41.13;99344.28;7696553;22;96337;-67
2023/06/03 06:56:56;;;;;;;;;10.60;8.60;;;;;20.14;42.25;99340.69;7695765;22;96784;-65
2023/06/03 07:00:00;;;;;;;;;11.50;10.50;;;;;20.56;41.88;99354.16;7695698;22;96205;-67
2023/06/03 07:03:08;;;;;;;;;7.60;6.60;;;;;20.71;40.17;99358.81;7696161;22;98379;-67
2023/06/03 07:06:12;;;;;;;;;10.00;9.60;;;;;20.66;40.46;99345.09;7721028;22;96167;-67
2023/06/03 07:09:18;;;;;;;;;8.00;8.00;;;;;21.00;40.13;99359.03;7698484;22;96254;-67
2023/06/03 07:12:21;;;;;;;;;7.00;7.00;;;;;21.21;38.99;99363.34;7696716;22;96472;-67
2023/06/03 07:15:25;;;;;;;;;8.50;7.00;;;;;21.48;38.48;99352.84;7695662;22;96153;-66
2023/06/03 07:18:30;;;;;;;;;8.40;8.00;;;;;21.19;38.30;99360.09;7695891;22;97505;-67
2023/06/03 07:21:34;;;;;;;;;9.60;9.60;;;;;21.16;36.49;99366.94;7669919;22;98436;-67
2023/06/03 07:24:40;;;;;;;;;7.00;6.60;;;;;20.91;38.48;99368.91;7696202;22;96692;-67
2023/06/03 07:27:44;;;;;;;;;10.00;9.20;;;;;20.73;38.26;99368.38;7669390;22;97631;-67
2023/06/03 07:30:49;;;;;;;;;12.00;11.00;;;;;20.91;38.59;99363.44;7697548;22;96999;-67
2023/06/03 07:33:56;;;;;;;;;8.00;8.00;;;;;21.40;38.44;99369.06;7695796;22;96015;-66
2023/06/03 07:37:12;;;;;;;;;7.00;7.00;;;;;21.48;35.40;99379.44;7670232;22;98275;-66
2023/06/03 07:40:18;;;;;;;;;8.00;8.00;;;;;21.74;37.41;99380.97;7696195;22;96653;-67
2023/06/03 07:43:22;;;;;;;;;6.00;6.00;;;;;21.77;36.63;99377.66;7671178;22;96606;-66
2023/06/03 07:46:38;;;;;;;;;6.60;6.60;;;;;21.96;35.20;99375.09;7695727;22;98274;-67
2023/06/03 07:49:45;;;;;;;;;7.00;6.40;;;;;21.81;34.51;99380.66;7672641;22;98977;-66
2023/06/03 07:52:59;;;;;;;;;6.00;6.00;;;;;22.16;35.03;99376.88;7699683;22;96362;-67
2023/06/03 07:56:09;;;;;;;;;8.00;8.00;;;;;21.94;34.75;99383.59;7697703;22;96230;-67
2023/06/03 07:59:13;;;;;;;;;9.00;8.60;;;;;21.90;34.61;99384.44;7699651;22;96162;-67
2023/06/03 08:02:17;;;;;;;;;6.00;5.20;;;;;22.11;35.61;99386.00;7699559;22;96241;-67
2023/06/03 08:05:31;;;;;;;;;8.60;7.60;;;;;22.65;35.76;99383.09;7700170;22;96796;-67
2023/06/03 08:08:36;;;;;;;;;7.00;7.00;;;;;23.24;34.87;99384.72;7698570;22;96315;-67
2023/06/03 08:11:39;;;;;;;;;8.00;8.00;;;;;23.85;31.50;99384.00;7700592;22;96142;-67
2023/06/03 08:14:43;;;;;;;;;8.00;8.00;;;;;23.50;30.30;99382.53;7699771;22;96682;-67
2023/06/03 08:17:46;;;;;;;;;6.00;5.00;;;;;23.53;30.75;99391.00;7697925;22;96296;-67
2023/06/03 08:20:51;;;;;;;;;7.20;7.20;;;;;23.87;32.20;99390.00;7699222;22;96352;-63
2023/06/03 08:23:54;;;;;;;;;7.00;6.40;;;;;23.69;29.60;99392.47;7699512;22;96387;-61
2023/06/03 08:26:57;;;;;;;;;7.00;6.00;;;;;23.92;30.95;99395.44;7698955;22;96357;-61
2023/06/03 08:30:03;;;;;;;;;9.75;8.75;;;;;24.30;30.64;99393.53;7697713;22;96209;-61
2023/06/03 08:33:08;;;;;;;;;8.00;7.00;;;;;24.01;27.54;99400.00;7697522;22;96556;-61
2023/06/03 08:36:13;;;;;;;;;6.00;5.75;;;;;24.21;29.48;99398.91;7697277;22;98924;-61
2023/06/03 08:39:16;;;;;;;;;6.40;6.40;;;;;24.50;30.13;99391.28;7699175;22;96211;-61
2023/06/03 08:42:24;;;;;;;;;6.25;6.25;;;;;24.58;27.48;99398.84;7698122;22;96399;-61
2023/06/03 08:45:37;;;;;;;;;6.50;6.00;;;;;25.10;27.74;99382.25;7697106;22;96598;-61
2023/06/03 08:48:48;;;;;;;;;8.00;7.40;;;;;25.67;28.27;99397.41;7672070;22;96742;-60
2023/06/03 08:51:55;;;;;;;;;5.25;5.25;;;;;25.21;26.46;99389.22;7699463;22;96329;-61
2023/06/03 08:55:01;;;;;;;;;4.80;4.00;;;;;25.57;25.14;99406.72;7697584;22;96238;-62
2023/06/03 08:58:10;;;;;;;;;4.60;4.20;;;;;25.48;23.29;99408.53;7697916;22;96572;-61
2023/06/03 09:01:16;;;;;;;;;6.00;5.00;;;;;25.29;26.91;99397.59;7698404;22;96430;-61
2023/06/03 09:04:20;;;;;;;;;4.00;4.00;;;;;25.23;26.52;99412.63;7698828;22;96738;-62
2023/06/03 09:07:25;;;;;;;;;5.00;5.00;;;;;24.77;24.29;99393.31;7698791;22;96362;-61
2023/06/03 09:10:31;;;;;;;;;4.00;4.00;;;;;24.69;25.53;99409.72;7700202;22;96306;-63
2023/06/03 09:13:35;;;;;;;;;5.40;5.40;;;;;24.44;23.60;99394.41;7699289;22;96281;-61
2023/06/03 09:16:38;;;;;;;;;4.00;4.00;;;;;24.25;24.48;99408.22;7697864;22;96280;-62
2023/06/03 09:19:42;;;;;;;;;4.00;4.00;;;;;24.15;25.24;99389.88;7696976;22;96339;-61
2023/06/03 09:22:47;;;;;;;;;4.20;4.00;;;;;23.97;23.73;99387.94;7697082;22;99073;-61
2023/06/03 09:25:50;;;;;;;;;5.50;5.00;;;;;24.08;27.17;99378.41;7698637;22;96292;-62
2023/06/03 09:28:53;;;;;;;;;4.50;4.50;;;;;24.44;24.67;99380.63;7698809;22;96299;-61
2023/06/03 09:31:58;;;;;;;;;5.00;5.00;;;;;24.38;26.28;99377.16;7699202;22;96266;-61
2023/06/03 09:35:04;;;;;;;;;5.00;4.00;;;;;24.38;24.23;99377.16;7671541;22;98412;-61
2023/06/03 09:38:09;;;;;;;;;5.00;4.75;;;;;24.73;25.67;99378.47;7671241;22;96617;-61
2023/06/03 09:41:15;;;;;;;;;8.00;7.60;;;;;24.88;25.66;99374.66;7698780;22;96334;-61
2023/06/03 09:44:19;;;;;;;;;5.80;5.20;;;;;24.57;22.53;99371.59;7699155;22;96380;-62
2023/06/03 09:47:22;;;;;;;;;4.00;4.00;;;;;24.78;24.56;99377.56;7696215;22;96590;-61
2023/06/03 09:50:28;;;;;;;;;3.50;3.50;;;;;24.32;22.57;99370.09;7670946;22;98490;-60
2023/06/03 09:53:33;;;;;;;;;4.00;4.00;;;;;24.34;23.77;99375.28;7699412;22;96505;-61
2023/06/03 09:56:36;;;;;;;;;3.40;3.40;;;;;24.32;24.88;99370.09;7699213;22;96185;-61
2023/06/03 09:59:42;;;;;;;;;4.00;4.00;;;;;24.59;26.18;99361.06;7699048;22;97034;-61
2023/06/03 10:02:46;;;;;;;;;4.00;4.00;;;;;25.06;25.95;99353.66;7699183;22;96287;-61
2023/06/03 10:05:50;;;;;;;;;5.00;4.00;;;;;25.36;25.37;99366.84;7698732;22;96471;-62
2023/06/03 10:08:55;;;;;;;;;5.50;5.50;;;;;25.21;22.49;99367.97;7697467;22;96442;-61
2023/06/03 10:11:58;;;;;;;;;6.00;6.00;;;;;25.22;23.82;99371.53;7696037;22;98499;-61
2023/06/03 10:15:05;;;;;;;;;3.00;3.00;;;;;24.73;24.59;99359.16;7699353;22;96299;-61
2023/06/03 10:18:08;;;;;;;;;5.75;5.25;;;;;25.18;24.24;99373.25;7696641;22;96501;-60
2023/06/03 10:21:13;;;;;;;;;4.00;3.00;;;;;24.80;25.02;99367.88;7697840;22;96631;-60
2023/06/03 10:24:18;;;;;;;;;4.60;4.60;;;;;25.09;23.98;99367.63;7698162;22;96271;-60
2023/06/03 10:27:22;;;;;;;;;3.00;3.00;;;;;25.49;25.09;99363.25;7698349;22;96794;-61
2023/06/03 10:30:25;;;;;;;;;5.00;5.00;;;;;25.87;23.70;99361.88;7697788;22;96493;-60
2023/06/03 10:33:30;;;;;;;;;2.20;2.20;;;;;26.06;24.13;99355.38;7698680;22;96207;-63
2023/06/03 10:36:35;;;;;;;;;4.00;3.00;;;;;26.16;23.68;99363.44;7698030;22;96330;-60
2023/06/03 10:39:42;;;;;;;;;4.50;4.50;;;;;25.79;21.04;99359.88;7697070;22;96400;-60
2023/06/03 10:42:47;;;;;;;;;2.75;2.75;;;;;25.97;24.27;99348.97;7698439;22;96232;-60
2023/06/03 10:45:54;;;;;;;;;3.00;2.50;;;;;26.07;23.41;99344.03;7698217;22;96153;-60
2023/06/03 10:48:58;;;;;;;;;4.00;4.00;;;;;26.32;24.04;99350.91;7698492;22;96500;-61
2023/06/03 10:52:21;;;;;;;;;3.75;3.00;;;;;26.10;22.40;99340.63;7698314;22;96324;-60
2023/06/03 10:55:34;;;;;;;;;2.25;2.25;;;;;25.60;23.57;99342.63;7669686;22;96629;-61
2023/06/03 10:58:41;;;;;;;;;4.00;4.00;;;;;25.46;23.96;99339.81;7696477;22;96878;-60
2023/06/03 11:02:00;;;;;;;;;6.40;6.40;;;;;25.61;22.71;99332.41;7697819;22;96848;-60
2023/06/03 11:05:23;;;;;;;;;4.00;4.00;;;;;25.43;23.92;99336.88;7700301;22;96185;-60
2023/06/03 11:08:57;;;;;;;;;4.00;3.75;;;;;25.61;23.99;99330.44;7700034;22;96231;-60
2023/06/03 11:12:12;;;;;;;;;3.75;3.75;;;;;25.73;23.33;99332.66;7649164;22;96783;-60
2023/06/03 11:15:16;;;;;;;;;4.00;4.00;;;;;25.84;21.83;99334.06;7698363;22;96732;-60
2023/06/03 11:18:19;;;;;;;;;3.20;3.20;;;;;26.18;23.03;99328.03;7700121;22;96291;-60
2023/06/03 11:21:46;;;;;;;;;3.40;3.40;;;;;26.17;20.16;99329.97;7670631;22;98630;-62
2023/06/03 11:24:53;;;;;;;;;3.75;3.00;;;;;26.44;22.89;99334.56;7699301;22;96400;-60
2023/06/03 11:28:35;;;;;;;;;3.25;3.00;;;;;26.53;22.18;99340.19;7698951;22;96338;-60
2023/06/03 11:31:41;;;;;;;;;3.00;3.00;;;;;26.14;21.47;99329.78;7698890;22;96247;-60
2023/06/03 11:34:45;;;;;;;;;3.00;3.00;;;;;26.28;22.21;99327.81;7698833;22;96201;-61
2023/06/03 11:37:53;;;;;;;;;4.40;3.60;;;;;26.47;22.12;99333.97;7671681;22;96219;-60
2023/06/03 11:40:57;;;;;;;;;1.60;1.60;;;;;26.28;20.72;99327.81;7699358;22;97406;-60
2023/06/03 11:44:21;;;;;;;;;3.00;2.80;;;;;26.45;22.05;99340.91;7670993;22;96540;-60
2023/06/03 11:47:48;;;;;;;;;3.40;3.40;;;;;26.30;20.43;99331.06;7657414;22;96782;-60
2023/06/03 11:50:54;;;;;;;;;4.00;3.50;;;;;26.24;20.75;99327.59;7668969;22;96465;-60
2023/06/03 11:53:58;;;;;;;;;4.00;4.00;;;;;26.38;21.60;99312.91;7671472;22;98416;-62
2023/06/03 11:57:03;;;;;;;;;4.00;4.00;;;;;25.99;20.55;99322.69;7668683;22;96607;-61
2023/06/03 12:00:10;;;;;;;;;2.80;2.00;;;;;26.07;22.56;99324.69;7665739;22;96463;-61
2023/06/03 12:03:18;;;;;;;;;5.40;5.00;;;;;26.42;22.32;99331.31;7695612;22;96366;-59
2023/06/03 12:06:23;;;;;;;;;2.00;2.00;;;;;26.78;22.06;99320.13;7669679;22;96329;-60
2023/06/03 12:09:28;;;;;;;;;3.60;3.60;;;;;27.11;21.63;99318.69;7696965;22;96904;-61
2023/06/03 12:12:32;;;;;;;;;2.00;2.00;;;;;26.51;22.44;99318.34;7697674;22;96263;-61
2023/06/03 12:15:35;;;;;;;;;3.00;3.00;;;;;26.74;20.24;99311.66;7669882;22;96299;-62
2023/06/03 12:18:40;;;;;;;;;4.00;4.00;;;;;26.11;21.71;99306.34;7699069;22;96004;-61
2023/06/03 12:21:44;;;;;;;;;3.40;3.40;;;;;25.61;21.72;99313.84;7698851;22;96192;-60
2023/06/03 12:24:47;;;;;;;;;4.00;3.40;;;;;25.27;22.47;99306.00;7672025;22;97450;-61
2023/06/03 12:27:50;;;;;;;;;2.00;2.00;;;;;25.24;22.12;99314.09;7698339;22;97518;-61
2023/06/03 12:30:54;;;;;;;;;4.00;4.00;;;;;25.45;22.28;99302.31;7699134;22;96167;-61
2023/06/03 12:34:00;;;;;;;;;4.40;4.00;;;;;25.44;23.07;99302.63;7698280;22;97966;-61
2023/06/03 12:37:06;;;;;;;;;5.40;5.00;;;;;25.68;23.41;99283.88;7672379;22;97250;-60
2023/06/03 12:40:10;;;;;;;;;6.00;5.60;;;;;25.96;23.21;99303.94;7699410;22;96184;-60
2023/06/03 12:43:21;;;;;;;;;4.80;4.00;;;;;26.15;22.88;99304.56;7698649;22;96930;-60
2023/06/03 12:46:24;;;;;;;;;4.00;4.00;;;;;26.43;22.57;99310.00;7698680;22;96306;-60
2023/06/03 12:49:30;;;;;;;;;3.40;3.40;;;;;26.79;22.22;99280.25;7669838;22;96621;-61
2023/06/03 12:52:37;;;;;;;;;3.50;3.00;;;;;26.94;21.32;99293.72;7698353;22;97510;-60
2023/06/03 12:55:41;;;;;;;;;7.00;6.50;;;;;27.07;21.46;99290.00;7699348;22;96192;-60
2023/06/03 12:58:44;;;;;;;;;6.50;6.00;;;;;27.13;21.89;99293.44;7672244;22;96206;-60
2023/06/03 13:01:47;;;;;;;;;5.00;5.00;;;;;27.20;21.20;99293.81;7643653;22;98300;-60
2023/06/03 13:04:52;;;;;;;;;7.00;7.00;;;;;27.13;20.40;99283.19;7671035;22;96547;-60
2023/06/03 13:07:56;;;;;;;;;5.60;5.60;;;;;26.88;20.98;99277.59;7698632;22;96649;-60
2023/06/03 13:10:59;;;;;;;;;5.00;5.00;;;;;26.52;20.99;99281.28;7698048;22;96371;-59
2023/06/03 13:14:03;;;;;;;;;3.80;3.80;;;;;26.30;21.92;99281.28;7672030;22;98300;-62
2023/06/03 13:17:07;;;;;;;;;3.00;2.00;;;;;26.28;22.25;99269.75;7698889;22;97431;-63
2023/06/03 13:20:12;;;;;;;;;4.00;4.00;;;;;26.18;21.52;99281.03;7698697;22;96559;-62
2023/06/03 13:23:15;;;;;;;;;4.00;4.00;;;;;26.07;21.46;99280.47;7671646;22;98316;-63
2023/06/03 13:26:19;;;;;;;;;5.60;5.00;;;;;25.74;20.38;99265.25;7671980;22;96295;-63
2023/06/03 13:29:22;;;;;;;;;5.00;4.00;;;;;25.67;22.93;99267.63;7698659;22;96312;-63
2023/06/03 13:32:26;;;;;;;;;3.00;3.00;;;;;25.69;22.82;99257.91;7696710;22;96346;-63
2023/06/03 13:35:30;;;;;;;;;4.00;4.00;;;;;25.55;21.31;99262.66;7696713;22;96283;-63
2023/06/03 13:38:34;;;;;;;;;3.60;3.00;;;;;25.56;21.70;99256.00;7697876;22;96518;-62
2023/06/03 13:41:38;;;;;;;;;3.00;3.00;;;;;25.41;21.58;99262.63;7697917;22;96497;-63
2023/06/03 13:44:41;;;;;;;;;4.00;4.00;;;;;25.51;21.76;99261.59;7698247;22;96313;-63
2023/06/03 13:47:45;;;;;;;;;5.00;5.00;;;;;25.36;22.24;99262.75;7697111;22;96242;-62
2023/06/03 13:50:52;;;;;;;;;4.00;4.00;;;;;24.95;22.12;99259.22;7699331;22;96947;-63
2023/06/03 13:53:55;;;;;;;;;4.00;4.00;;;;;24.94;21.59;99258.41;7695313;22;96210;-63
2023/06/03 13:56:59;;;;;;;;;4.00;4.00;;;;;25.26;23.38;99248.38;7697262;22;96298;-63
2023/06/03 14:00:03;;;;;;;;;4.40;3.80;;;;;25.67;23.26;99253.81;7643326;22;96650;-63
2023/06/03 14:03:07;;;;;;;;;4.00;4.00;;;;;25.43;21.27;99237.50;7696153;22;96529;-63
2023/06/03 14:06:12;;;;;;;;;5.00;5.00;;;;;25.54;22.89;99249.13;7696710;22;96905;-63
2023/06/03 14:09:16;;;;;;;;;3.50;3.25;;;;;25.55;21.86;99245.28;7668446;22;96671;-63
2023/06/03 14:12:20;;;;;;;;;4.00;3.75;;;;;25.55;22.45;99245.28;7696803;22;96536;-63
2023/06/03 14:15:23;;;;;;;;;3.60;3.60;;;;;25.68;22.69;99239.69;7696767;22;96478;-63
2023/06/03 14:18:27;;;;;;;;;4.40;4.40;;;;;25.67;21.57;99238.06;7643445;22;98762;-63
2023/06/03 14:21:32;;;;;;;;;3.60;3.60;;;;;25.49;22.40;99230.75;7696764;22;96788;-63
2023/06/03 14:24:35;;;;;;;;;4.00;4.00;;;;;25.32;22.53;99230.56;7696464;22;96468;-62
2023/06/03 14:27:39;;;;;;;;;3.25;3.25;;;;;24.99;22.03;99230.72;7668643;22;98389;-63